Time;durP1;ratioP1;P1;durP2;ratioP2;P2;SDS_P1;SDS_P2;PMS_P1;PMS_P2;Temp;Humidity;BMP_temperature;BMP_pressure;BME280_temperature;BME280_humidity;BME280_pressure;Samples;Min_cycle;Max_cycle;Signal;HPM_P1;HPM_P2
2022/09/28 00:01:47;;;;;;;0.90;0.70;;;;;;;10.85;88.26;97013.59;5005543;28;102861;-67
2022/09/28 00:04:15;;;;;;;1.17;0.90;;;;;;;10.91;88.37;97018.28;4999292;28;104068;-67
2022/09/28 00:06:43;;;;;;;2.10;1.53;;;;;;;10.74;89.53;97005.09;5032805;27;103342;-66
2022/09/28 00:09:11;;;;;;;1.40;1.20;;;;;;;10.84;90.39;96989.97;4999865;28;103265;-66
2022/09/28 00:11:42;;;;;;;1.87;1.53;;;;;;;10.68;91.17;96997.75;5002270;28;102745;-66
2022/09/28 00:14:10;;;;;;;2.30;1.20;;;;;;;10.82;90.55;96987.50;5000480;28;102830;-66
2022/09/28 00:16:43;;;;;;;1.30;0.90;;;;;;;11.09;89.11;96983.88;5002132;28;103223;-66
2022/09/28 00:19:13;;;;;;;1.90;1.10;;;;;;;11.00;88.65;96972.41;5002277;28;103223;-66
2022/09/28 00:21:42;;;;;;;1.10;0.80;;;;;;;10.95;89.20;96960.66;5003932;28;103024;-67
2022/09/28 00:24:13;;;;;;;1.20;1.10;;;;;;;10.66;90.90;96968.88;5004555;28;102763;-67
2022/09/28 00:26:46;;;;;;;1.10;0.90;;;;;;;10.42;93.20;96964.22;5032421;27;103930;-67
2022/09/28 00:29:21;;;;;;;1.10;1.00;;;;;;;10.38;94.90;96959.41;5000275;28;104554;-66
2022/09/28 00:31:52;;;;;;;1.48;0.90;;;;;;;10.58;92.70;96957.44;4997233;28;102886;-66
2022/09/28 00:34:20;;;;;;;1.77;0.90;;;;;;;10.44;93.56;96950.88;4999990;28;102663;-67
2022/09/28 00:36:48;;;;;;;1.10;0.80;;;;;;;10.61;93.41;96939.44;4999909;28;103603;-67
2022/09/28 00:39:17;;;;;;;1.65;1.00;;;;;;;10.80;91.60;96928.72;5003399;28;103343;-67
2022/09/28 00:41:46;;;;;;;1.98;0.95;;;;;;;10.63;92.12;96929.56;5003017;28;102779;-67
2022/09/28 00:44:46;;;;;;;0.95;0.93;;;;;;;10.71;92.42;96927.00;5005709;28;102989;-66
2022/09/28 00:47:21;;;;;;;1.30;1.00;;;;;;;10.66;92.49;96920.50;4975711;28;104229;-66
2022/09/28 00:49:54;;;;;;;1.63;0.90;;;;;;;10.53;93.01;96923.53;5031457;27;104469;-67
2022/09/28 00:52:27;;;;;;;0.82;0.80;;;;;;;10.72;92.18;96910.16;4998959;28;104241;-67
2022/09/28 00:54:58;;;;;;;2.75;0.85;;;;;;;10.92;91.26;96908.13;5000135;28;104183;-67
2022/09/28 00:57:28;;;;;;;2.43;1.00;;;;;;;10.72;92.64;96902.22;4996696;28;105925;-67
2022/09/28 00:59:57;;;;;;;1.65;0.80;;;;;;;10.80;92.88;96889.09;4997982;28;106143;-66
2022/09/28 01:02:24;;;;;;;1.25;0.80;;;;;;;11.13;91.32;96878.69;4996773;28;102775;-66
2022/09/28 01:04:53;;;;;;;1.30;0.90;;;;;;;11.16;90.80;96875.75;5032776;27;103910;-67
2022/09/28 01:07:21;;;;;;;1.15;0.90;;;;;;;11.10;91.99;96868.44;5025005;27;105103;-66
2022/09/28 01:09:50;;;;;;;2.33;0.90;;;;;;;11.21;90.62;96870.81;4997453;28;104151;-67
2022/09/28 01:12:18;;;;;;;1.60;0.95;;;;;;;11.32;90.25;96857.28;5016760;27;102650;-67
2022/09/28 01:14:48;;;;;;;1.67;0.90;;;;;;;11.17;90.62;96856.25;5001781;28;103889;-67
2022/09/28 01:17:23;;;;;;;1.80;0.90;;;;;;;11.26;90.55;96850.00;4996069;28;104434;-67
2022/09/28 01:20:24;;;;;;;1.30;0.90;;;;;;;11.39;90.47;96847.75;4995447;28;103256;-67
2022/09/28 01:23:22;;;;;;;1.00;0.80;;;;;;;11.43;89.82;96847.25;4995777;28;102794;-67
2022/09/28 01:25:54;;;;;;;1.60;0.90;;;;;;;11.32;90.16;96849.38;4997878;28;103627;-66
2022/09/28 01:28:28;;;;;;;1.10;1.00;;;;;;;11.38;89.77;96835.50;4999576;28;104455;-66
2022/09/28 01:31:06;;;;;;;1.00;0.90;;;;;;;11.47;89.41;96827.47;4997107;28;103429;-67
2022/09/28 01:33:39;;;;;;;1.30;0.90;;;;;;;11.38;89.89;96820.47;4996647;28;102669;-67
2022/09/28 01:36:11;;;;;;;1.30;0.95;;;;;;;11.43;89.71;96806.78;5001200;28;102720;-67
2022/09/28 01:38:46;;;;;;;1.10;1.00;;;;;;;11.30;90.44;96806.41;4996856;28;104468;-66
2022/09/28 01:41:16;;;;;;;1.40;1.00;;;;;;;11.32;90.96;96793.84;5001581;28;104354;-67
2022/09/28 01:43:54;;;;;;;1.48;1.00;;;;;;;11.07;91.65;96796.44;5000325;28;102788;-66
2022/09/28 01:46:27;;;;;;;1.33;1.00;;;;;;;11.13;93.06;96799.41;4997633;28;102973;-67
2022/09/28 01:48:59;;;;;;;1.55;0.88;;;;;;;11.22;92.10;96786.09;4994758;28;103946;-67
2022/09/28 01:51:35;;;;;;;2.38;1.02;;;;;;;11.21;91.76;96776.50;4996135;28;104203;-67
2022/09/28 01:54:10;;;;;;;3.05;1.00;;;;;;;11.12;92.65;96776.59;5001111;28;102702;-67
2022/09/28 01:56:45;;;;;;;2.42;0.80;;;;;;;11.10;92.43;96768.03;4996442;28;102832;-66
2022/09/28 01:59:19;;;;;;;2.50;0.97;;;;;;;11.34;91.64;96760.19;4997330;28;103416;-67
2022/09/28 02:01:51;;;;;;;1.93;0.80;;;;;;;11.24;92.28;96759.47;4991910;28;104510;-66
2022/09/28 02:04:24;;;;;;;2.10;0.90;;;;;;;11.25;92.85;96755.84;4997598;28;103013;-67
2022/09/28 02:06:58;;;;;;;1.45;0.95;;;;;;;11.28;93.03;96755.53;4997957;28;103990;-67
2022/09/28 02:09:32;;;;;;;1.85;0.90;;;;;;;11.37;92.68;96749.25;4997813;28;104332;-67
2022/09/28 02:12:07;;;;;;;3.08;0.85;;;;;;;11.35;92.21;96743.31;5029775;27;102959;-67
2022/09/28 02:14:40;;;;;;;2.73;0.80;;;;;;;11.24;92.92;96748.91;4999633;28;103013;-66
2022/09/28 02:17:09;;;;;;;3.22;1.10;;;;;;;11.30;93.15;96740.34;4999012;28;102815;-67
2022/09/28 02:19:40;;;;;;;2.13;0.77;;;;;;;11.24;93.16;96733.03;5000864;28;104641;-67
2022/09/28 02:22:24;;;;;;;3.40;1.20;;;;;;;11.25;92.84;96740.81;4997365;28;103701;-67
2022/09/28 02:24:56;;;;;;;3.17;0.95;;;;;;;11.31;92.39;96728.78;5000410;28;103064;-67
2022/09/28 02:27:34;;;;;;;2.25;0.90;;;;;;;11.28;92.94;96721.19;5000357;28;102705;-67
2022/09/28 02:30:05;;;;;;;2.87;1.03;;;;;;;11.16;93.30;96731.22;4998356;28;104425;-67
2022/09/28 02:32:39;;;;;;;2.63;0.90;;;;;;;11.38;91.84;96720.03;4997591;28;103379;-67
2022/09/28 02:35:08;;;;;;;4.82;1.60;;;;;;;11.33;91.97;96724.16;4998994;28;102691;-67
2022/09/28 02:37:39;;;;;;;4.55;1.00;;;;;;;11.35;91.89;96716.88;4999172;27;102900;-67
2022/09/28 02:40:13;;;;;;;3.03;1.10;;;;;;;11.26;92.88;96717.84;4996767;28;104101;-67
2022/09/28 02:42:53;;;;;;;3.72;0.98;;;;;;;11.59;91.30;96717.72;4997853;28;103481;-67
2022/09/28 02:45:36;;;;;;;3.92;1.10;;;;;;;11.34;92.65;96713.41;4998421;28;103130;-67
2022/09/28 02:48:19;;;;;;;2.15;1.10;;;;;;;11.48;92.46;96717.25;4997234;28;104143;-67
2022/09/28 02:51:19;;;;;;;2.28;1.00;;;;;;;11.26;93.71;96720.50;5029609;27;105239;-67
2022/09/28 02:54:12;;;;;;;2.72;1.00;;;;;;;11.36;94.23;96710.59;5029372;27;103248;-67
2022/09/28 02:57:01;;;;;;;3.00;1.20;;;;;;;11.45;94.06;96707.00;4989011;28;102806;-67
2022/09/28 02:59:44;;;;;;;2.65;1.20;;;;;;;11.41;94.16;96703.00;5032662;27;102774;-67
2022/09/28 03:02:24;;;;;;;2.45;1.00;;;;;;;11.45;93.73;96702.50;4997168;28;103392;-67
2022/09/28 03:05:06;;;;;;;2.20;1.00;;;;;;;11.56;92.79;96696.09;5024389;27;106845;-67
2022/09/28 03:07:36;;;;;;;5.47;1.42;;;;;;;11.54;92.86;96698.06;4994704;28;102712;-62
2022/09/28 03:10:13;;;;;;;2.78;1.20;;;;;;;11.51;93.52;96688.63;5000361;28;104120;-62
2022/09/28 03:12:43;;;;;;;2.23;1.10;;;;;;;11.53;93.41;96686.66;4999410;28;104138;-63
2022/09/28 03:15:13;;;;;;;2.37;1.20;;;;;;;11.53;93.77;96681.38;5002041;28;103348;-63
2022/09/28 03:17:43;;;;;;;4.00;1.17;;;;;;;11.58;92.99;96670.31;5034129;27;103278;-63
2022/09/28 03:20:13;;;;;;;3.35;1.30;;;;;;;11.54;93.38;96666.31;5002663;28;104326;-63
2022/09/28 03:22:41;;;;;;;4.78;1.50;;;;;;;11.30;93.70;96668.97;5030313;27;103737;-63
2022/09/28 03:25:09;;;;;;;4.17;1.27;;;;;;;11.31;94.41;96662.69;5004597;28;104219;-63
2022/09/28 03:27:38;;;;;;;4.17;1.30;;;;;;;11.49;94.01;96663.34;5002486;28;103174;-63
2022/09/28 03:30:08;;;;;;;5.68;1.30;;;;;;;11.29;94.71;96675.22;5032064;27;103777;-63
2022/09/28 03:32:37;;;;;;;3.42;1.10;;;;;;;11.54;93.81;96680.38;5000900;28;105000;-63
2022/09/28 03:35:08;;;;;;;1.85;1.00;;;;;;;11.51;93.87;96672.78;5027042;27;104175;-63
2022/09/28 03:37:36;;;;;;;3.00;1.00;;;;;;;11.64;92.82;96667.00;4996926;28;102683;-63
2022/09/28 03:40:06;;;;;;;3.88;0.95;;;;;;;11.54;93.95;96684.84;5033752;27;104442;-63
2022/09/28 03:42:43;;;;;;;2.07;1.10;;;;;;;11.45;95.22;96702.50;4993592;28;103482;-63
2022/09/28 03:45:11;;;;;;;3.63;1.23;;;;;;;11.53;94.87;96730.78;4999857;28;103177;-62
2022/09/28 03:47:39;;;;;;;3.00;1.15;;;;;;;10.84;97.88;96739.03;4996856;28;102793;-59
2022/09/28 03:50:09;;;;;;;2.92;0.90;;;;;;;11.04;98.74;96741.25;4999400;28;103532;-60
2022/09/28 03:52:37;;;;;;;1.63;0.80;;;;;;;11.39;95.60;96726.97;5000112;28;103545;-60
2022/09/28 03:55:05;;;;;;;2.10;0.70;;;;;;;11.65;93.87;96724.16;5000151;28;103428;-59
2022/09/28 03:57:33;;;;;;;2.15;0.75;;;;;;;11.51;94.85;96735.41;5000315;28;103737;-59
2022/09/28 04:00:03;;;;;;;2.03;0.70;;;;;;;11.21;95.91;96733.38;5004353;28;103746;-59
2022/09/28 04:02:40;;;;;;;1.75;0.65;;;;;;;11.38;93.31;96727.97;5002747;28;103871;-59
2022/09/28 04:05:12;;;;;;;2.67;0.70;;;;;;;11.55;92.94;96720.88;5002295;28;104312;-59
2022/09/28 04:07:39;;;;;;;2.20;0.70;;;;;;;11.64;92.08;96714.59;4997904;28;103794;-59
2022/09/28 04:10:08;;;;;;;1.10;0.60;;;;;;;11.78;90.55;96723.72;4999533;28;103161;-59
2022/09/28 04:12:36;;;;;;;1.00;0.80;;;;;;;11.93;90.41;96714.94;4991431;28;105184;-59
2022/09/28 04:15:06;;;;;;;1.90;0.90;;;;;;;11.89;89.32;96711.00;5000293;28;103231;-59
2022/09/28 04:17:34;;;;;;;2.50;0.83;;;;;;;11.73;90.19;96723.41;4994879;28;103047;-60
2022/09/28 04:20:12;;;;;;;2.45;0.80;;;;;;;11.47;91.39;96723.50;4989877;28;103054;-59
2022/09/28 04:22:45;;;;;;;1.80;0.80;;;;;;;11.67;90.31;96719.56;4989598;28;103491;-60
2022/09/28 04:25:13;;;;;;;1.58;0.70;;;;;;;11.92;90.57;96718.59;5000405;28;104083;-60
2022/09/28 04:30:26;;;;;;;2.53;0.93;;;;;;;11.58;90.83;96724.03;5001992;28;103998;-60
2022/09/28 04:32:54;;;;;;;2.15;1.02;;;;;;;11.67;90.67;96714.28;4998296;28;104516;-60
2022/09/28 04:35:23;;;;;;;1.42;0.70;;;;;;;11.76;90.09;96718.56;4999933;28;105898;-60
2022/09/28 04:37:51;;;;;;;0.82;0.63;;;;;;;11.81;90.57;96716.28;4997187;28;103099;-61
2022/09/28 04:40:21;;;;;;;2.13;0.70;;;;;;;11.94;89.44;96729.00;4997324;28;103860;-60
2022/09/28 04:42:53;;;;;;;1.48;0.80;;;;;;;12.04;88.37;96725.19;5003710;28;103951;-60
2022/09/28 04:45:22;;;;;;;1.50;0.75;;;;;;;12.02;88.26;96721.06;4998993;28;103138;-60
2022/09/28 04:47:50;;;;;;;1.33;0.60;;;;;;;11.57;89.66;96734.75;4999618;28;102794;-60
2022/09/28 04:50:38;;;;;;;1.30;0.77;;;;;;;11.55;89.24;96728.81;5000244;28;102721;-64
2022/09/28 04:53:08;;;;;;;0.95;0.60;;;;;;;11.69;88.48;96733.47;5001745;28;105341;-60
2022/09/28 04:55:36;;;;;;;1.75;0.88;;;;;;;11.70;88.78;96735.13;4999612;28;106195;-60
2022/09/28 04:58:04;;;;;;;1.95;0.73;;;;;;;11.90;87.56;96740.94;4999048;28;103300;-64
2022/09/28 05:00:34;;;;;;;1.60;0.68;;;;;;;11.75;87.54;96739.91;5000397;28;103039;-65
2022/09/28 05:03:25;;;;;;;2.40;0.88;;;;;;;11.64;88.83;96741.88;5001161;28;104444;-65
2022/09/28 05:06:15;;;;;;;1.07;0.60;;;;;;;11.84;88.90;96742.41;5000370;28;103101;-64
2022/09/28 05:08:46;;;;;;;2.47;0.85;;;;;;;11.77;88.16;96736.13;4999093;28;102706;-64
2022/09/28 05:11:15;;;;;;;2.17;0.70;;;;;;;11.85;88.88;96735.28;4994572;28;104168;-64
2022/09/28 05:13:45;;;;;;;1.33;0.50;;;;;;;11.96;88.17;96751.66;4988552;28;104268;-64
2022/09/28 05:16:15;;;;;;;1.90;0.80;;;;;;;11.79;87.84;96739.41;4988278;28;103253;-64
2022/09/28 05:19:15;;;;;;;0.88;0.60;;;;;;;12.03;87.51;96725.38;4988145;28;102709;-64
2022/09/28 05:21:47;;;;;;;2.30;0.70;;;;;;;11.90;87.72;96738.28;5022221;27;102813;-64
2022/09/28 05:24:15;;;;;;;1.60;0.73;;;;;;;11.93;87.81;96744.03;5011686;27;104143;-64
2022/09/28 05:26:49;;;;;;;2.13;0.90;;;;;;;11.94;87.62;96753.66;4992105;28;105142;-65
2022/09/28 05:29:17;;;;;;;1.38;0.85;;;;;;;11.99;87.44;96756.63;4985921;28;102847;-64
2022/09/28 05:31:51;;;;;;;1.73;0.73;;;;;;;12.04;87.09;96745.56;4990770;28;105364;-64
2022/09/28 05:34:59;;;;;;;1.88;0.70;;;;;;;12.08;86.50;96746.84;4930996;28;103282;-63
2022/09/28 05:37:39;;;;;;;2.28;0.80;;;;;;;12.00;85.67;96750.34;4916027;28;104016;-63
2022/09/28 05:40:11;;;;;;;2.30;0.93;;;;;;;11.97;86.80;96734.78;4973682;27;102936;-63
2022/09/28 05:42:39;;;;;;;1.58;0.90;;;;;;;12.01;86.73;96725.50;4972340;28;103377;-63
2022/09/28 05:45:09;;;;;;;2.15;0.70;;;;;;;12.04;86.53;96733.13;4997246;27;105638;-64
2022/09/28 05:47:39;;;;;;;0.88;0.60;;;;;;;11.95;86.87;96742.09;5011899;27;103362;-64
2022/09/28 05:50:10;;;;;;;2.35;0.90;;;;;;;11.50;89.15;96746.97;4988145;28;103136;-64
2022/09/28 05:52:41;;;;;;;1.45;0.80;;;;;;;11.42;90.18;96752.25;4992676;28;105751;-65
2022/09/28 05:55:11;;;;;;;1.45;0.93;;;;;;;11.60;89.65;96759.06;4989623;28;105355;-64
2022/09/28 05:57:38;;;;;;;1.80;0.80;;;;;;;11.57;90.45;96755.91;4996998;28;103222;-64
2022/09/28 06:00:09;;;;;;;1.97;0.90;;;;;;;11.72;89.62;96764.88;4993579;28;102941;-64
2022/09/28 06:02:41;;;;;;;0.90;0.60;;;;;;;11.81;88.88;96763.91;4994404;28;104119;-64
2022/09/28 06:05:11;;;;;;;1.13;0.77;;;;;;;11.65;87.67;96769.13;4992310;28;106703;-64
2022/09/28 06:07:43;;;;;;;1.70;1.07;;;;;;;11.69;88.31;96764.34;4992555;28;104330;-64
2022/09/28 06:10:11;;;;;;;1.95;1.00;;;;;;;11.56;88.35;96764.84;4983984;28;103359;-65
2022/09/28 06:12:43;;;;;;;1.08;0.98;;;;;;;11.74;89.21;96770.84;4980881;28;102884;-64
2022/09/28 06:15:16;;;;;;;1.33;0.80;;;;;;;11.77;89.61;96767.88;5011515;28;103950;-64
2022/09/28 06:17:45;;;;;;;1.20;0.70;;;;;;;12.00;88.19;96760.94;4982783;28;106233;-64
2022/09/28 06:20:42;;;;;;;1.40;0.90;;;;;;;12.03;88.06;96773.81;4983288;28;103106;-64
2022/09/28 06:23:15;;;;;;;1.30;0.80;;;;;;;12.14;87.21;96767.38;4979921;28;104338;-64
2022/09/28 06:25:43;;;;;;;1.25;0.88;;;;;;;12.08;87.45;96766.22;4971454;28;103392;-65
2022/09/28 06:28:13;;;;;;;1.00;0.70;;;;;;;12.11;88.24;96778.28;4972252;28;103238;-64
2022/09/28 06:30:43;;;;;;;1.73;0.77;;;;;;;11.87;88.89;96784.41;4973316;28;102978;-64
2022/09/28 06:33:16;;;;;;;1.52;0.90;;;;;;;12.08;88.69;96779.44;4974490;28;103101;-64
2022/09/28 06:35:44;;;;;;;1.60;0.90;;;;;;;12.05;88.13;96790.38;4993187;28;103965;-64
2022/09/28 06:38:12;;;;;;;1.50;0.93;;;;;;;12.18;87.79;96788.03;4988936;28;103211;-65
2022/09/28 06:40:41;;;;;;;2.33;1.02;;;;;;;12.10;87.42;96788.03;4973225;28;102777;-64
2022/09/28 06:43:11;;;;;;;1.40;0.93;;;;;;;12.20;88.16;96791.38;4989537;28;104111;-64
2022/09/28 06:45:57;;;;;;;2.10;1.20;;;;;;;12.06;88.29;96789.38;4993761;28;104056;-65
2022/09/28 06:48:57;;;;;;;2.38;1.25;;;;;;;12.00;87.78;96797.97;4994917;28;102816;-64
2022/09/28 06:51:51;;;;;;;2.42;1.17;;;;;;;12.16;88.08;96805.91;4973039;28;103240;-64
2022/09/28 06:54:24;;;;;;;1.80;1.20;;;;;;;12.31;87.52;96802.59;4986104;28;103003;-64
2022/09/28 06:57:08;;;;;;;15.00;11.35;;;;;;;12.02;87.65;96803.91;4998366;28;103955;-64
2022/09/28 06:59:37;;;;;;;5.07;4.00;;;;;;;12.13;88.70;96816.81;4975009;28;106018;-64
2022/09/28 07:02:06;;;;;;;2.83;1.63;;;;;;;12.34;87.69;96812.84;4975913;28;102842;-65
2022/09/28 07:05:00;;;;;;;3.28;1.67;;;;;;;12.40;87.58;96818.31;4993387;28;102999;-64
2022/09/28 07:07:45;;;;;;;3.30;1.50;;;;;;;12.27;86.97;96823.25;4976211;28;104314;-64
2022/09/28 07:10:22;;;;;;;1.57;1.17;;;;;;;12.44;86.75;96830.22;4976167;28;103772;-65
2022/09/28 07:13:12;;;;;;;2.03;1.10;;;;;;;12.57;87.44;96829.72;4995298;28;103306;-64
2022/09/28 07:16:06;;;;;;;2.20;1.23;;;;;;;12.68;87.30;96821.41;4974965;28;104481;-63
2022/09/28 07:18:35;;;;;;;2.03;1.00;;;;;;;12.55;89.28;96829.88;4974705;28;104964;-64
2022/09/28 07:21:06;;;;;;;1.57;1.10;;;;;;;12.63;88.42;96834.34;4976945;28;104452;-65
2022/09/28 07:23:36;;;;;;;2.75;1.20;;;;;;;12.68;87.78;96845.25;4976442;28;103452;-65
2022/09/28 07:26:24;;;;;;;3.83;1.88;;;;;;;12.34;89.60;96847.28;4993324;28;102875;-65
2022/09/28 07:29:00;;;;;;;4.13;3.70;;;;;;;12.59;88.63;96854.19;5002033;27;104584;-65
2022/09/28 07:31:40;;;;;;;3.10;1.80;;;;;;;12.57;88.57;96845.59;4974295;28;103332;-65
2022/09/28 07:34:42;;;;;;;2.05;1.40;;;;;;;12.64;90.07;96852.72;4981198;28;102936;-64
2022/09/28 07:37:18;;;;;;;2.20;1.50;;;;;;;12.80;88.51;96865.09;4983104;28;102697;-65
2022/09/28 07:42:37;;;;;;;2.80;1.87;;;;;;;12.37;87.96;96866.31;4987541;28;103156;-65
2022/09/28 07:45:07;;;;;;;3.83;1.77;;;;;;;12.36;87.83;96874.41;4984239;28;102681;-64
2022/09/28 07:47:35;;;;;;;1.73;1.17;;;;;;;12.83;87.28;96878.00;5002626;28;102704;-64
2022/09/28 07:50:16;;;;;;;3.08;1.42;;;;;;;12.90;86.03;96873.69;4984501;28;103410;-65
2022/09/28 07:53:07;;;;;;;4.20;1.80;;;;;;;12.52;87.19;96882.38;4961283;28;103210;-65
2022/09/28 07:55:52;;;;;;;4.07;1.70;;;;;;;12.68;85.76;96879.69;4984399;28;102640;-65
2022/09/28 07:58:35;;;;;;;2.67;1.73;;;;;;;12.59;85.22;96883.34;5003439;28;103931;-65
2022/09/28 08:01:22;;;;;;;4.55;1.90;;;;;;;12.97;84.67;96884.47;5001317;28;103315;-65
2022/09/28 08:03:55;;;;;;;3.20;1.90;;;;;;;12.73;85.66;96882.66;4972953;28;103685;-65
2022/09/28 08:06:23;;;;;;;3.35;1.75;;;;;;;12.78;84.07;96896.22;4978446;28;103259;-65
2022/09/28 08:08:55;;;;;;;3.10;1.48;;;;;;;12.56;84.83;96897.75;4977102;28;103835;-65
2022/09/28 08:11:28;;;;;;;3.08;1.88;;;;;;;12.46;87.54;96898.91;4981512;28;104140;-65
2022/09/28 08:14:05;;;;;;;2.92;1.80;;;;;;;12.60;85.64;96893.75;4981200;28;103200;-65
2022/09/28 08:16:53;;;;;;;3.22;2.00;;;;;;;12.90;84.67;96894.91;4999531;28;103061;-65
2022/09/28 08:22:31;;;;;;;6.17;2.23;;;;;;;12.24;87.61;96895.06;4982642;28;104487;-65
2022/09/28 08:25:00;;;;;;;3.60;1.83;;;;;;;12.53;84.79;96899.88;4983845;28;105333;-65
2022/09/28 08:27:30;;;;;;;4.90;2.20;;;;;;;12.48;85.69;96904.88;4977903;28;102882;-65
2022/09/28 08:29:57;;;;;;;4.47;2.33;;;;;;;12.88;82.60;96910.16;4985232;28;104213;-65
2022/09/28 08:33:06;;;;;;;3.30;2.00;;;;;;;12.34;84.93;96908.16;4898699;28;103249;-64
2022/09/28 08:35:40;;;;;;;4.30;1.90;;;;;;;12.65;84.18;96917.13;4897267;28;104025;-65
2022/09/28 08:38:21;;;;;;;3.10;1.50;;;;;;;13.02;81.98;96916.56;4951871;28;102800;-64
2022/09/28 08:41:15;;;;;;;3.93;1.60;;;;;;;12.98;82.33;96920.56;5000997;28;103251;-65
2022/09/28 08:44:14;;;;;;;2.72;1.75;;;;;;;13.25;82.10;96921.00;4979787;28;106019;-65
2022/09/28 08:50:23;;;;;;;3.28;2.10;;;;;;;13.32;78.40;96931.78;5001842;28;103151;-65
2022/09/28 08:53:25;;;;;;;2.53;1.50;;;;;;;13.68;79.34;96934.78;5015590;28;102758;-59
2022/09/28 08:56:06;;;;;;;4.18;2.47;;;;;;;13.33;78.79;96928.94;4980096;28;103364;-59
2022/09/28 08:58:40;;;;;;;3.42;1.60;;;;;;;13.12;81.25;96944.59;5012922;27;104174;-59
2022/09/28 09:01:15;;;;;;;2.40;1.77;;;;;;;13.36;80.63;96941.88;4982156;28;102919;-59
2022/09/28 09:03:46;;;;;;;3.00;1.80;;;;;;;13.17;80.91;96947.56;5010489;28;103974;-60
2022/09/28 09:06:42;;;;;;;4.07;1.93;;;;;;;13.40;78.76;96939.72;5003136;28;103507;-59
2022/09/28 09:09:35;;;;;;;3.15;1.67;;;;;;;13.49;77.35;96953.78;4981109;28;105965;-59
2022/09/28 09:12:10;;;;;;;4.63;1.88;;;;;;;13.43;77.23;96954.44;4980053;28;102808;-59
2022/09/28 09:15:17;;;;;;;3.00;1.48;;;;;;;13.86;77.73;96956.63;4979773;28;103570;-64
2022/09/28 09:17:57;;;;;;;1.95;1.25;;;;;;;14.30;77.57;96960.34;4980240;28;104092;-65
2022/09/28 09:20:43;;;;;;;3.85;1.70;;;;;;;13.86;75.86;96959.28;4978595;28;104289;-65
2022/09/28 09:23:19;;;;;;;5.07;2.05;;;;;;;13.73;75.50;96958.97;4999258;28;102600;-64
2022/09/28 09:25:54;;;;;;;3.20;1.43;;;;;;;13.60;73.73;96966.66;4978501;28;103162;-65
2022/09/28 09:28:50;;;;;;;4.05;1.60;;;;;;;13.26;75.66;96965.09;5007408;27;103796;-65
2022/09/28 09:31:43;;;;;;;2.30;1.35;;;;;;;13.69;75.67;96966.47;4977628;28;103227;-65
2022/09/28 09:34:32;;;;;;;3.22;2.00;;;;;;;14.04;75.96;96980.25;5011813;27;102707;-65
2022/09/28 09:37:50;;;;;;;2.08;1.52;;;;;;;14.13;74.10;96971.25;4959382;28;103923;-65
2022/09/28 09:41:09;;;;;;;3.10;1.70;;;;;;;14.04;73.24;96986.38;4979684;28;103435;-65
2022/09/28 09:44:19;;;;;;;3.38;1.60;;;;;;;13.98;73.72;96979.09;4988985;28;103204;-65
2022/09/28 09:46:57;;;;;;;2.87;1.60;;;;;;;14.40;71.81;96984.88;4981427;28;103094;-64
2022/09/28 09:49:46;;;;;;;4.32;1.45;;;;;;;15.02;70.66;96982.09;4978572;28;102751;-65
2022/09/28 09:52:22;;;;;;;3.88;1.90;;;;;;;14.13;72.39;96992.47;4992709;28;103272;-65
2022/09/28 09:54:55;;;;;;;2.67;1.60;;;;;;;14.39;73.19;96990.38;4978769;28;105481;-65
2022/09/28 09:57:38;;;;;;;3.57;1.77;;;;;;;14.99;72.17;96982.44;4982602;28;103013;-65
2022/09/28 10:00:28;;;;;;;4.47;1.75;;;;;;;14.45;72.73;96992.34;4981190;28;102807;-65
2022/09/28 10:03:17;;;;;;;3.40;1.83;;;;;;;14.67;71.35;96988.88;4976533;28;104284;-65
2022/09/28 10:05:54;;;;;;;4.78;1.88;;;;;;;14.36;74.33;96988.91;4978509;28;103545;-65
2022/09/28 10:08:23;;;;;;;3.60;2.03;;;;;;;14.61;72.05;96999.38;4993409;28;103045;-65
2022/09/28 10:10:56;;;;;;;5.17;1.70;;;;;;;14.04;73.00;96991.69;4977029;28;103954;-65
2022/09/28 10:13:30;;;;;;;3.53;1.85;;;;;;;13.85;73.66;96986.81;4988513;28;104416;-65
2022/09/28 10:16:02;;;;;;;3.75;1.70;;;;;;;14.49;72.19;96981.19;4973593;28;104254;-61
2022/09/28 10:18:37;;;;;;;2.67;1.80;;;;;;;14.26;71.88;96985.59;4969894;28;104598;-65
2022/09/28 10:21:29;;;;;;;4.30;1.88;;;;;;;14.20;71.73;96975.72;4991656;28;104045;-60
2022/09/28 10:24:07;;;;;;;3.22;1.80;;;;;;;14.21;70.68;96972.03;5006044;28;103329;-60
2022/09/28 10:26:39;;;;;;;3.53;1.90;;;;;;;14.62;70.25;96979.78;4995209;28;103216;-61
2022/09/28 10:29:16;;;;;;;4.72;1.77;;;;;;;14.74;69.23;96967.72;4993287;28;103158;-60
2022/09/28 10:31:47;;;;;;;3.60;1.90;;;;;;;14.88;69.74;96980.22;4994624;28;102925;-61
2022/09/28 10:34:27;;;;;;;2.97;1.60;;;;;;;15.07;69.64;96987.72;4988574;28;102888;-60
2022/09/28 10:36:59;;;;;;;4.88;1.95;;;;;;;14.61;66.95;96978.13;5005786;27;103190;-61
2022/09/28 10:39:36;;;;;;;3.30;1.88;;;;;;;14.28;68.49;96980.13;4978058;28;103252;-60
2022/09/28 10:42:08;;;;;;;4.10;1.65;;;;;;;14.18;68.53;96988.31;4976662;28;102744;-60
2022/09/28 10:44:50;;;;;;;3.33;1.63;;;;;;;14.78;66.99;96988.47;4976729;28;104281;-60
2022/09/28 10:47:44;;;;;;;2.63;1.50;;;;;;;14.81;67.18;96989.94;4992008;28;103266;-60
2022/09/28 10:50:20;;;;;;;4.10;1.90;;;;;;;14.72;66.25;96997.13;4977633;28;102726;-60
2022/09/28 10:52:52;;;;;;;3.50;1.70;;;;;;;14.62;67.32;96990.41;4975861;28;103082;-60
2022/09/28 10:55:39;;;;;;;2.55;1.35;;;;;;;15.25;65.75;96996.19;4993186;28;103199;-60
2022/09/28 10:58:25;;;;;;;3.10;1.50;;;;;;;15.20;64.67;96987.94;4975936;28;103630;-60
2022/09/28 11:01:00;;;;;;;2.60;1.50;;;;;;;15.16;63.42;96994.59;4974413;28;104655;-60
2022/09/28 11:03:30;;;;;;;2.60;1.45;;;;;;;14.82;63.31;96986.28;4979074;28;104195;-60
2022/09/28 11:06:05;;;;;;;4.20;1.42;;;;;;;15.06;63.20;96991.38;4976920;28;104160;-60
2022/09/28 11:08:38;;;;;;;3.47;1.40;;;;;;;14.75;63.80;96993.28;4999510;28;104064;-60
2022/09/28 11:11:10;;;;;;;3.50;1.70;;;;;;;15.22;64.27;96993.88;4972237;28;102710;-60
2022/09/28 11:13:41;;;;;;;2.43;1.40;;;;;;;15.11;62.30;96996.97;4996971;28;104797;-60
2022/09/28 11:16:28;;;;;;;3.30;1.52;;;;;;;15.25;62.84;96993.53;4977041;28;105074;-61
2022/09/28 11:18:59;;;;;;;3.22;1.45;;;;;;;15.21;62.22;97002.91;4976134;28;103204;-60
2022/09/28 11:21:30;;;;;;;2.40;1.40;;;;;;;15.79;62.26;96986.19;4974269;28;103558;-60
2022/09/28 11:24:17;;;;;;;3.38;1.75;;;;;;;15.18;63.10;96997.94;4978423;28;103756;-60
2022/09/28 11:26:51;;;;;;;2.13;1.30;;;;;;;15.76;63.75;96981.22;5002698;28;105019;-60
2022/09/28 11:29:26;;;;;;;4.15;1.73;;;;;;;15.49;63.96;96987.19;4997578;28;103259;-60
2022/09/28 11:32:18;;;;;;;2.63;1.20;;;;;;;15.79;62.33;96983.50;4994996;28;104551;-61
2022/09/28 11:35:06;;;;;;;2.63;1.45;;;;;;;15.75;61.44;96978.75;4997591;28;103536;-61
2022/09/28 11:38:03;;;;;;;3.90;1.87;;;;;;;16.12;61.67;96981.28;4980851;28;104699;-61
2022/09/28 11:41:45;;;;;;;4.00;1.45;;;;;;;16.24;60.48;96974.47;4981561;28;103142;-61
2022/09/28 11:44:25;;;;;;;4.13;1.25;;;;;;;16.44;59.44;96966.69;4997124;28;102628;-60
2022/09/28 11:47:32;;;;;;;4.10;1.30;;;;;;;16.11;58.22;96971.66;4979161;28;104014;-61
2022/09/28 11:50:05;;;;;;;4.10;1.45;;;;;;;16.04;58.58;96970.72;4978066;28;105264;-61
2022/09/28 11:52:41;;;;;;;4.40;1.50;;;;;;;16.21;59.69;96964.16;4979764;28;103349;-61
2022/09/28 11:55:18;;;;;;;3.77;1.60;;;;;;;16.05;59.89;96972.38;4982459;28;102690;-61
2022/09/28 11:57:55;;;;;;;3.40;1.30;;;;;;;16.03;59.18;96963.72;4980035;28;102784;-61
2022/09/28 12:00:23;;;;;;;4.25;1.30;;;;;;;16.03;60.02;96961.91;4997892;28;103997;-61
2022/09/28 12:03:05;;;;;;;2.65;1.20;;;;;;;16.48;58.74;96966.09;4978012;28;105642;-61
2022/09/28 12:05:37;;;;;;;4.13;1.30;;;;;;;16.68;57.62;96959.16;4996067;28;103074;-61
2022/09/28 12:08:12;;;;;;;3.22;1.33;;;;;;;16.38;58.30;96965.59;4981252;28;103787;-61
2022/09/28 12:11:05;;;;;;;5.03;1.45;;;;;;;15.99;58.10;96959.81;4949941;28;104061;-61
2022/09/28 12:13:54;;;;;;;2.78;1.40;;;;;;;16.62;57.48;96967.94;4994325;28;102943;-61
2022/09/28 12:16:27;;;;;;;2.63;1.30;;;;;;;16.09;58.82;96965.66;4996371;28;102982;-61
2022/09/28 12:19:21;;;;;;;2.38;1.30;;;;;;;16.11;58.75;96971.66;4999758;28;103176;-61
2022/09/28 12:21:53;;;;;;;3.58;1.40;;;;;;;16.07;57.68;96962.34;4975590;28;104619;-61